TimeEDT,TemperatureF,Dew PointF,Humidity,Sea Level PressureIn,VisibilityMPH,Wind Direction,Wind SpeedMPH,Gust SpeedMPH,PrecipitationIn,Events,Conditions,WindDirDegrees,DateUTC
12:53 AM,59.0,50.0,72,29.95,10.0,ESE,4.6,-,N/A,,Clear,120,2011-10-12 04:53:00
1:53 AM,57.9,50.0,75,29.94,10.0,Calm,Calm,-,N/A,,Clear,0,2011-10-12 05:53:00
2:53 AM,59.0,50.0,72,29.93,10.0,Calm,Calm,-,N/A,,Clear,0,2011-10-12 06:53:00
3:53 AM,55.9,51.1,84,29.92,10.0,South,4.6,-,N/A,,Clear,170,2011-10-12 07:53:00
4:53 AM,59.0,51.1,75,29.92,10.0,Calm,Calm,-,N/A,,Clear,0,2011-10-12 08:53:00
5:53 AM,57.0,52.0,83,29.92,10.0,South,4.6,-,N/A,,Clear,170,2011-10-12 09:53:00
6:53 AM,57.0,52.0,83,29.94,10.0,SSE,3.5,-,N/A,,Clear,150,2011-10-12 10:53:00
7:53 AM,57.0,52.0,83,29.94,10.0,Calm,Calm,-,N/A,,Mostly Cloudy,0,2011-10-12 11:53:00
9:53 AM,59.0,54.0,83,29.92,10.0,SE,4.6,-,N/A,,Overcast,130,2011-10-12 13:53:00
10:53 AM,60.1,54.0,80,29.91,10.0,SE,5.8,-,N/A,,Mostly Cloudy,140,2011-10-12 14:53:00
11:53 AM,62.1,55.0,78,29.88,10.0,ENE,10.4,-,N/A,,Overcast,70,2011-10-12 15:53:00
12:39 PM,62.6,55.4,77,29.88,10.0,ENE,9.2,-,N/A,,Overcast,70,2011-10-12 16:39:00
12:53 PM,62.1,55.0,78,29.87,10.0,ENE,6.9,-,N/A,,Overcast,70,2011-10-12 16:53:00
1:53 PM,61.0,55.9,83,29.85,6.0,East,4.6,-,N/A,,Haze,80,2011-10-12 17:53:00
2:04 PM,60.8,57.2,88,29.86,1.8,East,6.9,-,0.00,Rain,Light Rain,100,2011-10-12 18:04:00
2:07 PM,59.0,57.2,94,29.85,1.2,East,5.8,-,0.00,Rain,Rain,90,2011-10-12 18:07:00
2:15 PM,59.0,57.2,94,29.85,1.2,ENE,4.6,-,0.00,Rain,Light Rain,70,2011-10-12 18:15:00
2:31 PM,59.0,57.2,94,29.84,2.5,NE,5.8,-,0.00,,Overcast,50,2011-10-12 18:31:00
2:38 PM,59.0,57.2,94,29.84,1.8,NE,3.5,-,0.00,Rain,Light Rain,50,2011-10-12 18:38:00
2:53 PM,59.0,57.0,93,29.82,1.5,NE,5.8,-,0.00,Rain,Light Rain,40,2011-10-12 18:53:00
3:17 PM,59.0,57.2,94,29.82,3.0,NE,4.6,-,0.00,,Overcast,50,2011-10-12 19:17:00
3:53 PM,60.1,57.0,90,29.80,8.0,NE,3.5,-,0.00,,Overcast,40,2011-10-12 19:53:00
4:07 PM,60.8,57.2,88,29.80,9.0,ENE,4.6,-,N/A,,Overcast,70,2011-10-12 20:07:00
5:53 PM,61.0,55.9,83,29.78,10.0,Calm,Calm,-,N/A,,Overcast,0,2011-10-12 21:53:00
6:53 PM,60.1,55.9,86,29.76,9.0,Calm,Calm,-,N/A,,Overcast,0,2011-10-12 22:53:00
7:53 PM,59.0,57.0,93,29.76,9.0,Calm,Calm,-,N/A,,Overcast,0,2011-10-12 23:53:00
8:11 PM,59.0,55.4,88,29.76,9.0,SE,3.5,-,N/A,,Overcast,130,2011-10-13 00:11:00
8:53 PM,55.0,55.0,100,29.75,6.0,SSE,3.5,-,N/A,,Mostly Cloudy,150,2011-10-13 00:53:00
9:22 PM,55.4,53.6,94,29.77,3.0,South,3.5,-,N/A,,Mostly Cloudy,170,2011-10-13 01:22:00
10:25 PM,57.2,55.4,94,29.77,5.0,Calm,Calm,-,N/A,,Overcast,0,2011-10-13 02:25:00
10:53 PM,57.0,55.0,93,29.75,5.0,SE,3.5,-,N/A,,Overcast,140,2011-10-13 02:53:00
11:53 PM,57.9,55.9,93,29.73,6.0,SSE,4.6,-,N/A,,Overcast,150,2011-10-13 03:53:00